< Typhoon 200909 2009 Season Typhoon 200911 >
Typhoon 200910 (VAMCO)
General InformationTrack Information on Google MapsDetailed Wind InformationAccess Analytics MapList of All Images || NewsDisaster Info.WeblogTrackbackTyphoon FrontTyphoon ImaginationResourceGoogle EarthGE AnimationAtom FeedGeoJSON
Detalied Best Track (Time Zone = UTC)
Year Month Day Hour Lat. Long. Pressure (hPa) Wind (kt) Class Image Chart
2009 8 16 12 11.6 160.7 1006 0 2 Image Chart
2009 8 16 18 11.5 160.0 1006 0 2 Image Chart
2009 8 17 00 12.6 159.0 1006 0 2 Image Chart
2009 8 17 06 13.2 158.8 1006 0 2 Image Chart
2009 8 17 12 13.9 158.5 1004 0 2 Image Chart
2009 8 17 18 14.5 158.3 1000 35 3 Image Chart
2009 8 18 00 15.6 157.8 998 35 3 Image Chart
2009 8 18 06 16.2 157.5 996 40 3 Image Chart
2009 8 18 12 16.6 157.3 985 50 4 Image Chart
2009 8 18 18 17.0 157.3 980 55 4 Image Chart
2009 8 19 00 17.3 157.5 975 65 5 Image Chart
2009 8 19 06 17.7 157.7 970 70 5 Image Chart
2009 8 19 12 18.0 157.6 965 75 5 Image Chart
2009 8 19 18 18.2 157.4 950 85 5 Image Chart
2009 8 20 00 18.6 157.4 945 90 5 Image Chart
2009 8 20 06 18.8 157.1 945 90 5 Image Chart
2009 8 20 12 19.0 157.1 945 90 5 Image Chart
2009 8 20 18 19.3 157.0 945 90 5 Image Chart
2009 8 21 00 19.8 156.7 945 90 5 Image Chart
2009 8 21 06 20.5 156.8 945 90 5 Image Chart
2009 8 21 12 21.1 156.7 945 90 5 Image Chart
2009 8 21 18 22.2 156.9 945 90 5 Image Chart
2009 8 22 00 23.5 156.7 955 80 5 Image Chart
2009 8 22 06 24.7 156.3 955 80 5 Image Chart
2009 8 22 12 25.6 155.9 955 80 5 Image Chart
2009 8 22 18 26.5 155.5 955 80 5 Image Chart
2009 8 23 00 27.5 155.0 955 80 5 Image Chart
2009 8 23 06 28.5 154.9 955 80 5 Image Chart
2009 8 23 12 29.3 154.6 955 80 5 Image Chart
2009 8 23 18 30.0 154.4 955 80 5 Image Chart
2009 8 24 00 31.1 154.8 955 80 5 Image Chart
2009 8 24 06 32.2 154.9 960 75 5 Image Chart
2009 8 24 12 33.6 155.3 960 75 5 Image Chart
2009 8 24 18 35.5 155.9 960 75 5 Image Chart
2009 8 25 00 38.1 156.8 965 70 5 Image Chart
2009 8 25 06 41.4 158.6 970 65 5 Image Chart
2009 8 25 12 45.2 161.6 980 60 4 Image Chart
2009 8 25 18 48.5 164.7 985 55 4 Image Chart
2009 8 26 00 51.4 169.3 988 0 6 Image Chart
2009 8 26 06 53.3 173.9 988 0 6 Image Chart
2009 8 26 12 54.3 178.6 988 0 6 Image Chart
2009 8 26 18 54.7 183.5 988 0 6 Image Chart
Japan Meteorological Agency Best Track Data | Correction Date : 2009-10-08
< Typhoon 200909 2009 Season Typhoon 200911 >

Help